Time;durP1;ratioP1;P1;durP2;ratioP2;P2;SDS_P1;SDS_P2;PMS_P1;PMS_P2;Temp;Humidity;BMP_temperature;BMP_pressure;BME280_temperature;BME280_humidity;BME280_pressure;Samples;Min_cycle;Max_cycle;Signal;HPM_P1;HPM_P2
2022/01/09 00:00:10;;;;;;;1.30;0.90;;;5.60;99.90;;;;;;5052533;28;20366;-61
2022/01/09 00:02:36;;;;;;;1.88;0.93;;;5.50;99.90;;;;;;5052133;28;20023;-61
2022/01/09 00:05:01;;;;;;;1.33;0.90;;;5.60;99.90;;;;;;5052434;28;20029;-61
2022/01/09 00:07:27;;;;;;;2.33;1.10;;;5.60;99.90;;;;;;5052276;28;20112;-61
2022/01/09 00:09:52;;;;;;;2.17;1.10;;;5.60;99.90;;;;;;5052358;28;20025;-61
2022/01/09 00:12:18;;;;;;;2.20;1.20;;;5.60;99.90;;;;;;5052010;28;20033;-61
2022/01/09 00:14:43;;;;;;;1.77;1.20;;;5.60;99.90;;;;;;5052053;28;20108;-61
2022/01/09 00:17:09;;;;;;;1.30;0.95;;;5.70;99.90;;;;;;5055918;28;20485;-61
2022/01/09 00:19:34;;;;;;;1.30;1.10;;;5.70;99.90;;;;;;5055978;28;20021;-61
2022/01/09 00:22:00;;;;;;;2.08;1.50;;;5.80;99.90;;;;;;5056436;28;20425;-62
2022/01/09 00:24:25;;;;;;;1.58;0.85;;;5.90;99.90;;;;;;5056067;28;20032;-62
2022/01/09 00:26:51;;;;;;;1.17;1.00;;;5.90;99.90;;;;;;5055745;28;20025;-61
2022/01/09 00:29:16;;;;;;;2.25;0.90;;;6.00;99.90;;;;;;5055830;28;20032;-62
2022/01/09 00:31:42;;;;;;;1.50;0.82;;;6.00;99.90;;;;;;5055845;28;20392;-62
2022/01/09 00:34:07;;;;;;;1.17;0.73;;;6.00;99.90;;;;;;5055805;28;20029;-61
2022/01/09 00:36:33;;;;;;;1.33;0.82;;;6.10;99.90;;;;;;5055557;28;20033;-61
2022/01/09 00:38:58;;;;;;;1.13;0.80;;;6.10;99.90;;;;;;5055842;28;20021;-61
2022/01/09 00:41:24;;;;;;;1.00;0.88;;;6.10;99.90;;;;;;5055583;28;20051;-62
2022/01/09 00:43:50;;;;;;;1.40;1.13;;;6.20;99.90;;;;;;5055428;28;20020;-61
2022/01/09 00:46:17;;;;;;;1.95;1.27;;;6.20;99.90;;;;;;5055468;28;20020;-61
2022/01/09 00:48:42;;;;;;;1.23;0.93;;;6.20;99.90;;;;;;5055517;28;20518;-61
2022/01/09 00:51:08;;;;;;;1.10;0.80;;;6.20;99.90;;;;;;5055455;28;20108;-61
2022/01/09 00:53:33;;;;;;;1.50;1.15;;;6.30;99.90;;;;;;5055245;28;20031;-62
2022/01/09 00:55:59;;;;;;;2.33;1.33;;;6.20;99.90;;;;;;5055158;28;20108;-61
2022/01/09 00:58:25;;;;;;;1.83;1.58;;;6.30;99.90;;;;;;5055354;28;20044;-62
2022/01/09 01:00:50;;;;;;;2.13;1.92;;;6.30;99.90;;;;;;5054964;28;20029;-62
2022/01/09 01:03:16;;;;;;;3.92;3.03;;;6.30;99.90;;;;;;5055299;28;20029;-62
2022/01/09 01:05:41;;;;;;;5.55;3.35;;;6.30;99.90;;;;;;5055010;28;20039;-62
2022/01/09 01:08:07;;;;;;;4.65;2.83;;;6.30;99.90;;;;;;5055149;28;20025;-62
2022/01/09 01:10:32;;;;;;;5.13;3.05;;;6.30;99.90;;;;;;5055088;28;20029;-61
2022/01/09 01:12:58;;;;;;;8.75;3.17;;;6.30;99.90;;;;;;5053529;28;20036;-61
2022/01/09 01:15:23;;;;;;;5.55;2.67;;;6.40;99.90;;;;;;5054825;28;20067;-61
2022/01/09 01:17:49;;;;;;;6.32;3.10;;;6.40;99.90;;;;;;5054782;28;20094;-61
2022/01/09 01:20:20;;;;;;;6.28;1.70;;;6.40;99.90;;;;;;5055012;28;20022;-61
2022/01/09 01:22:45;;;;;;;7.68;2.00;;;6.40;99.90;;;;;;5054776;28;20017;-61
2022/01/09 01:25:11;;;;;;;7.70;1.75;;;6.40;99.90;;;;;;5054803;28;20381;-61
2022/01/09 01:27:36;;;;;;;8.10;2.13;;;6.50;99.90;;;;;;5053997;28;20087;-61
2022/01/09 01:30:04;;;;;;;8.30;2.45;;;6.50;99.90;;;;;;5055028;28;20029;-61
2022/01/09 01:32:29;;;;;;;12.25;2.45;;;6.50;99.90;;;;;;5054361;28;20027;-61
2022/01/09 01:34:55;;;;;;;11.18;2.38;;;6.50;99.90;;;;;;5038457;28;20104;-61
2022/01/09 01:37:20;;;;;;;13.45;2.15;;;6.50;99.90;;;;;;5044933;28;20500;-61
2022/01/09 01:39:46;;;;;;;24.83;3.72;;;6.60;99.90;;;;;;5054416;28;20484;-61
2022/01/09 01:42:11;;;;;;;29.58;5.53;;;6.60;99.90;;;;;;5054421;28;20031;-61
2022/01/09 01:44:45;;;;;;;28.13;4.85;;;6.60;99.90;;;;;;5054252;28;20403;-61
2022/01/09 01:47:12;;;;;;;31.23;4.75;;;6.70;99.90;;;;;;5054201;28;20028;-61
2022/01/09 01:49:38;;;;;;;32.88;5.25;;;6.60;99.90;;;;;;5054337;28;20029;-61
2022/01/09 01:52:04;;;;;;;27.05;4.32;;;6.70;99.90;;;;;;5054213;28;20104;-61
2022/01/09 01:54:32;;;;;;;25.50;4.20;;;6.70;99.90;;;;;;5052709;28;20021;-61
2022/01/09 01:56:57;;;;;;;26.60;4.55;;;6.70;99.90;;;;;;5053043;28;20036;-62
2022/01/09 01:59:23;;;;;;;31.27;4.68;;;6.70;99.90;;;;;;5054257;28;20089;-61
2022/01/09 02:01:48;;;;;;;32.75;5.22;;;6.70;99.90;;;;;;5053978;28;20059;-62
2022/01/09 02:04:14;;;;;;;30.10;4.43;;;6.80;99.90;;;;;;5054062;28;20029;-61
2022/01/09 02:06:42;;;;;;;22.65;3.70;;;6.80;99.90;;;;;;5053856;28;20036;-61
2022/01/09 02:09:07;;;;;;;33.15;5.18;;;6.80;99.90;;;;;;5053880;28;20033;-61
2022/01/09 02:11:33;;;;;;;23.05;3.78;;;6.80;99.90;;;;;;5053975;28;20032;-61
2022/01/09 02:13:59;;;;;;;29.00;4.00;;;6.80;99.90;;;;;;5053603;28;20512;-61
2022/01/09 02:16:26;;;;;;;27.05;3.58;;;6.80;99.90;;;;;;5053482;28;20033;-61
2022/01/09 02:18:52;;;;;;;26.55;3.78;;;6.80;99.90;;;;;;5053786;28;20480;-61
2022/01/09 02:21:18;;;;;;;26.83;4.07;;;6.90;99.90;;;;;;5053739;28;20029;-61
2022/01/09 02:23:47;;;;;;;23.98;4.25;;;6.90;99.90;;;;;;5053724;28;20408;-61
2022/01/09 02:26:20;;;;;;;24.73;4.20;;;6.90;99.90;;;;;;5052506;28;20115;-61
2022/01/09 02:28:47;;;;;;;29.50;4.15;;;6.90;99.90;;;;;;5053552;28;20029;-61
2022/01/09 02:31:14;;;;;;;21.25;3.80;;;6.90;99.90;;;;;;5052397;28;20033;-62
2022/01/09 02:33:40;;;;;;;25.52;4.40;;;6.90;99.90;;;;;;5053222;28;20094;-61
2022/01/09 02:36:06;;;;;;;24.73;4.47;;;6.90;99.90;;;;;;5053309;28;20029;-61
2022/01/09 02:38:32;;;;;;;28.77;3.92;;;6.90;99.90;;;;;;5051343;28;20095;-62
2022/01/09 02:40:57;;;;;;;24.25;4.05;;;6.90;99.90;;;;;;5053376;28;20031;-61
2022/01/09 02:43:23;;;;;;;22.95;4.30;;;6.90;99.90;;;;;;5053044;28;20036;-62
2022/01/09 02:48:37;;;;;;;18.02;3.65;;;7.00;99.90;;;;;;5053230;28;20043;-61
2022/01/09 02:51:14;;;;;;;24.63;4.03;;;6.90;99.90;;;;;;5053280;28;20465;-61
2022/01/09 02:53:44;;;;;;;24.90;3.90;;;6.90;99.90;;;;;;5053080;28;20086;-62
2022/01/09 02:56:10;;;;;;;;;;;6.90;99.90;;;;;;5052560;28;20033;-62
2022/01/09 02:58:37;;;;;;;29.75;4.45;;;6.90;99.90;;;;;;5052328;28;19995;-61
2022/01/09 03:01:04;;;;;;;25.35;5.03;;;6.90;99.90;;;;;;5052138;28;20426;-61
2022/01/09 03:03:30;;;;;;;30.25;4.18;;;6.90;99.90;;;;;;5052243;28;20077;-61
2022/01/09 03:05:55;;;;;;;30.60;4.60;;;6.90;99.90;;;;;;5051765;28;20502;-61
2022/01/09 03:08:21;;;;;;;25.75;4.38;;;6.90;99.90;;;;;;5052878;28;20029;-61
2022/01/09 03:10:46;;;;;;;24.08;3.47;;;7.00;99.90;;;;;;5051708;28;20033;-61
2022/01/09 03:13:12;;;;;;;22.70;4.95;;;6.90;99.90;;;;;;5052610;28;20037;-61
2022/01/09 03:15:38;;;;;;;28.27;4.75;;;7.00;99.90;;;;;;5052543;28;20028;-61
2022/01/09 03:18:04;;;;;;;23.38;3.85;;;7.00;99.90;;;;;;5052614;28;20366;-61
2022/01/09 03:20:29;;;;;;;30.92;4.20;;;7.00;99.90;;;;;;5052942;28;20111;-61
2022/01/09 03:22:56;;;;;;;23.95;4.07;;;7.00;99.90;;;;;;5052784;28;20017;-61
2022/01/09 03:25:23;;;;;;;28.27;4.60;;;7.00;99.90;;;;;;5052660;28;20418;-61
2022/01/09 03:27:49;;;;;;;26.10;4.18;;;7.00;99.90;;;;;;5052628;28;20037;-61
2022/01/09 03:30:16;;;;;;;28.70;4.05;;;7.00;99.90;;;;;;5052639;28;20021;-61
2022/01/09 03:32:42;;;;;;;18.73;3.90;;;7.00;99.90;;;;;;5052439;28;20420;-61
2022/01/09 03:35:11;;;;;;;21.05;3.63;;;7.00;99.90;;;;;;5052417;28;20029;-61
2022/01/09 03:37:37;;;;;;;24.20;3.30;;;7.00;99.90;;;;;;5052540;28;20567;-61
2022/01/09 03:40:08;;;;;;;21.02;3.92;;;7.00;99.90;;;;;;5052735;28;20075;-61
2022/01/09 03:42:34;;;;;;;21.80;3.78;;;7.00;99.90;;;;;;5052545;28;20112;-61
2022/01/09 03:44:59;;;;;;;15.82;3.38;;;7.00;99.90;;;;;;5051148;28;20104;-61
2022/01/09 03:47:25;;;;;;;22.77;3.38;;;7.00;99.90;;;;;;5052460;28;20033;-61
2022/01/09 03:49:51;;;;;;;26.75;3.28;;;7.00;99.90;;;;;;5052609;28;20036;-61
2022/01/09 03:52:17;;;;;;;18.80;3.00;;;7.00;99.90;;;;;;5056621;28;20393;-61
2022/01/09 03:54:43;;;;;;;21.15;4.32;;;6.90;99.90;;;;;;5056387;28;20032;-61
2022/01/09 03:57:08;;;;;;;25.88;6.60;;;7.00;99.90;;;;;;5056391;28;20358;-61
2022/01/09 03:59:34;;;;;;;18.17;2.53;;;7.00;99.90;;;;;;5056516;28;20473;-61
2022/01/09 04:02:00;;;;;;;15.30;3.40;;;7.00;99.90;;;;;;5056554;28;20595;-61
2022/01/09 04:04:26;;;;;;;19.58;3.40;;;7.00;99.90;;;;;;5056052;28;20032;-61
2022/01/09 04:06:51;;;;;;;21.10;3.92;;;7.00;99.90;;;;;;5056450;28;20029;-61
2022/01/09 04:09:20;;;;;;;20.20;4.63;;;7.00;99.90;;;;;;5056224;28;20037;-61
2022/01/09 04:11:47;;;;;;;18.30;2.50;;;7.00;99.90;;;;;;5056202;28;20100;-61
2022/01/09 04:14:13;;;;;;;20.25;3.85;;;7.00;99.90;;;;;;5054781;28;20471;-61
2022/01/09 04:16:39;;;;;;;19.50;3.22;;;6.90;99.90;;;;;;5056006;28;20123;-61
2022/01/09 04:19:05;;;;;;;15.60;2.60;;;6.90;99.90;;;;;;5055921;28;20113;-62
2022/01/09 04:21:31;;;;;;;19.73;3.83;;;6.90;99.90;;;;;;5056099;28;20049;-61
2022/01/09 04:23:56;;;;;;;14.23;2.90;;;6.90;99.90;;;;;;5054686;28;20063;-61
2022/01/09 04:26:22;;;;;;;19.80;3.03;;;6.90;99.90;;;;;;5055824;28;20021;-62
2022/01/09 04:28:48;;;;;;;16.67;4.15;;;6.80;99.90;;;;;;5055865;28;20033;-62
2022/01/09 04:31:15;;;;;;;22.27;2.47;;;6.80;99.90;;;;;;5054690;28;20043;-61
2022/01/09 04:33:41;;;;;;;18.23;3.47;;;6.80;99.90;;;;;;5055781;28;20043;-61
2022/01/09 04:36:07;;;;;;;13.15;2.50;;;6.80;99.90;;;;;;5055524;28;20037;-62
2022/01/09 04:38:33;;;;;;;16.45;2.42;;;6.80;99.90;;;;;;5054330;28;20120;-62
2022/01/09 04:40:58;;;;;;;20.98;2.67;;;6.80;99.90;;;;;;5055698;28;20086;-61
2022/01/09 04:43:24;;;;;;;13.18;2.45;;;6.80;99.90;;;;;;5055344;28;20492;-62
2022/01/09 04:45:50;;;;;;;17.35;2.20;;;6.80;99.90;;;;;;5055554;28;20060;-61
2022/01/09 04:48:16;;;;;;;15.13;2.90;;;6.70;99.90;;;;;;5055534;28;20029;-62
2022/01/09 04:50:43;;;;;;;18.52;2.55;;;6.70;99.90;;;;;;5055340;28;20021;-62
2022/01/09 04:53:09;;;;;;;16.23;2.28;;;6.70;99.90;;;;;;5055481;28;20036;-62
2022/01/09 04:55:45;;;;;;;14.27;1.90;;;6.70;99.90;;;;;;5055076;28;20033;-62
2022/01/09 04:58:11;;;;;;;10.25;1.80;;;6.70;99.90;;;;;;5055516;28;20021;-61
2022/01/09 05:00:36;;;;;;;13.98;2.55;;;6.70;99.90;;;;;;5055289;28;20025;-62
2022/01/09 05:03:02;;;;;;;11.32;1.75;;;6.70;99.90;;;;;;5054347;28;20096;-61
2022/01/09 05:05:28;;;;;;;17.08;2.47;;;6.60;99.90;;;;;;5054882;28;20522;-61
2022/01/09 05:07:53;;;;;;;12.13;1.83;;;6.60;99.90;;;;;;5055288;28;20037;-62
2022/01/09 05:10:19;;;;;;;14.73;2.40;;;6.60;99.90;;;;;;5054997;28;20029;-61
2022/01/09 05:12:44;;;;;;;9.40;1.88;;;6.60;99.90;;;;;;5055057;28;20059;-62
2022/01/09 05:15:14;;;;;;;12.35;2.53;;;6.60;99.90;;;;;;5054744;28;20049;-61
2022/01/09 05:17:39;;;;;;;12.27;2.00;;;6.60;99.90;;;;;;5054880;28;20025;-62
2022/01/09 05:20:05;;;;;;;14.13;2.08;;;6.60;99.90;;;;;;5054958;28;20382;-61
2022/01/09 05:22:31;;;;;;;12.15;1.63;;;6.50;99.90;;;;;;5054816;28;20032;-62
2022/01/09 05:25:06;;;;;;;17.95;2.70;;;6.50;99.90;;;;;;5054769;28;20025;-61
2022/01/09 05:27:32;;;;;;;15.25;3.17;;;6.50;99.90;;;;;;5054841;28;20025;-61
2022/01/09 05:29:58;;;;;;;10.30;1.77;;;6.50;99.90;;;;;;5054758;28;20036;-61
2022/01/09 05:32:24;;;;;;;11.00;2.33;;;6.40;99.90;;;;;;5053530;28;20032;-62
2022/01/09 05:34:50;;;;;;;7.75;1.83;;;6.40;99.90;;;;;;5054509;28;20021;-61
2022/01/09 05:37:16;;;;;;;11.27;2.17;;;6.40;99.90;;;;;;5054174;28;20057;-62
2022/01/09 05:39:42;;;;;;;12.07;1.88;;;6.40;99.90;;;;;;5054329;28;20056;-62
2022/01/09 05:42:12;;;;;;;11.68;1.50;;;6.40;99.90;;;;;;5054446;28;20029;-61
2022/01/09 05:44:38;;;;;;;15.20;1.70;;;6.40;99.90;;;;;;5034173;28;20492;-62
2022/01/09 05:47:04;;;;;;;13.40;1.80;;;6.40;99.90;;;;;;5034580;28;20131;-62
2022/01/09 05:49:30;;;;;;;14.32;2.30;;;6.40;99.90;;;;;;5034286;28;20419;-61
2022/01/09 05:51:55;;;;;;;11.10;1.45;;;6.30;99.90;;;;;;5034317;28;20021;-61
2022/01/09 05:54:21;;;;;;;8.45;1.67;;;6.30;99.90;;;;;;5033042;28;20026;-61
2022/01/09 05:56:47;;;;;;;12.88;1.60;;;6.30;99.90;;;;;;5034280;28;20041;-62
2022/01/09 05:59:13;;;;;;;11.60;2.05;;;6.30;99.90;;;;;;5034293;28;20459;-61
2022/01/09 06:01:39;;;;;;;8.52;1.00;;;6.30;99.90;;;;;;5033215;28;20033;-61
2022/01/09 06:04:05;;;;;;;12.70;1.63;;;6.30;99.90;;;;;;5034242;28;20033;-61
2022/01/09 06:06:31;;;;;;;9.98;1.80;;;6.30;99.90;;;;;;5033807;28;20108;-61
2022/01/09 06:08:57;;;;;;;12.73;1.70;;;6.30;99.90;;;;;;5034251;28;20022;-61
2022/01/09 06:11:22;;;;;;;8.82;1.50;;;6.30;99.90;;;;;;5032765;28;20036;-61
2022/01/09 06:13:48;;;;;;;11.32;2.15;;;6.30;99.90;;;;;;5048984;28;20064;-61
2022/01/09 06:16:14;;;;;;;8.63;1.17;;;6.30;99.90;;;;;;5052534;28;20060;-61
2022/01/09 06:18:40;;;;;;;6.53;0.90;;;6.20;99.90;;;;;;5053831;28;20013;-61
2022/01/09 06:21:05;;;;;;;7.82;1.40;;;6.20;99.90;;;;;;5053740;28;20055;-61
2022/01/09 06:23:31;;;;;;;7.72;1.17;;;6.20;99.90;;;;;;5053607;28;20120;-61
2022/01/09 06:25:57;;;;;;;10.95;1.65;;;6.20;99.90;;;;;;5053663;28;20666;-61
2022/01/09 06:28:22;;;;;;;7.78;1.30;;;6.10;99.90;;;;;;5053705;28;20037;-62
2022/01/09 06:30:48;;;;;;;12.55;1.52;;;6.10;99.90;;;;;;5053514;28;20033;-61
2022/01/09 06:33:14;;;;;;;10.90;1.25;;;6.10;99.90;;;;;;5053670;28;20029;-62
2022/01/09 06:35:40;;;;;;;8.57;1.40;;;6.10;99.90;;;;;;5053216;28;20104;-62
2022/01/09 06:38:06;;;;;;;10.55;1.90;;;6.10;99.90;;;;;;5053382;28;20123;-62
2022/01/09 06:40:32;;;;;;;8.38;1.45;;;6.10;99.90;;;;;;5053383;28;20082;-62
2022/01/09 06:42:58;;;;;;;9.20;1.38;;;6.00;99.90;;;;;;5053471;28;20021;-61
2022/01/09 06:45:24;;;;;;;8.55;1.40;;;6.00;99.90;;;;;;5046695;28;20034;-61
2022/01/09 06:47:52;;;;;;;5.30;1.10;;;6.00;99.90;;;;;;5034022;28;20032;-62
2022/01/09 06:50:18;;;;;;;11.13;1.10;;;6.00;99.90;;;;;;5045890;28;20385;-62
2022/01/09 06:52:44;;;;;;;10.48;1.35;;;6.00;99.90;;;;;;5044207;28;20026;-61
2022/01/09 06:55:10;;;;;;;9.32;1.30;;;6.00;99.90;;;;;;5051902;28;20033;-62
2022/01/09 06:57:35;;;;;;;11.13;1.50;;;5.90;99.90;;;;;;5048844;28;20033;-61
2022/01/09 07:00:03;;;;;;;12.25;1.50;;;5.90;99.90;;;;;;5050440;28;20362;-61
2022/01/09 07:02:29;;;;;;;9.32;1.40;;;5.80;99.90;;;;;;5052165;28;20473;-62
2022/01/09 07:04:54;;;;;;;5.72;1.13;;;5.90;99.90;;;;;;5052957;28;20035;-62
2022/01/09 07:07:20;;;;;;;11.82;2.17;;;5.80;99.90;;;;;;5052940;28;20021;-61
2022/01/09 07:09:45;;;;;;;9.27;1.35;;;5.80;99.90;;;;;;5052817;28;20029;-61
2022/01/09 07:12:11;;;;;;;8.77;1.45;;;5.80;99.90;;;;;;5052871;28;20055;-61
2022/01/09 07:14:36;;;;;;;11.27;1.75;;;5.80;99.90;;;;;;5051453;28;20079;-62
2022/01/09 07:17:02;;;;;;;11.18;1.85;;;5.80;99.90;;;;;;5052641;28;20041;-61
2022/01/09 07:19:28;;;;;;;9.55;1.30;;;5.70;99.90;;;;;;5052773;28;20548;-61
2022/01/09 07:21:54;;;;;;;9.27;1.83;;;5.70;99.90;;;;;;5051774;28;20119;-62
2022/01/09 07:24:19;;;;;;;8.75;0.80;;;5.80;99.90;;;;;;5052432;28;20029;-61
2022/01/09 07:26:45;;;;;;;9.43;1.60;;;5.80;99.90;;;;;;5052284;28;20064;-62
2022/01/09 07:29:10;;;;;;;9.65;1.33;;;5.80;99.90;;;;;;5052782;28;20036;-62
2022/01/09 07:31:36;;;;;;;13.70;1.70;;;5.80;99.90;;;;;;5052611;28;20021;-62
2022/01/09 07:34:01;;;;;;;10.98;1.48;;;5.80;99.90;;;;;;5052593;28;20040;-62
2022/01/09 07:36:27;;;;;;;8.57;2.85;;;5.80;99.90;;;;;;5052519;28;20119;-62
2022/01/09 07:38:52;;;;;;;9.27;1.30;;;5.90;99.90;;;;;;5052734;28;20528;-62
2022/01/09 07:41:18;;;;;;;10.60;1.60;;;5.90;99.90;;;;;;5052606;28;20477;-62
2022/01/09 07:43:44;;;;;;;9.50;1.52;;;5.90;99.90;;;;;;5052544;28;20025;-62
2022/01/09 07:46:09;;;;;;;8.45;1.52;;;5.90;99.90;;;;;;5052502;28;20384;-62
2022/01/09 07:48:35;;;;;;;9.35;1.83;;;5.90;99.90;;;;;;5052480;28;20021;-62
2022/01/09 07:51:00;;;;;;;8.48;1.48;;;5.90;99.90;;;;;;5051428;28;20357;-61
2022/01/09 07:53:26;;;;;;;10.73;1.95;;;5.90;99.90;;;;;;5052605;28;20116;-61
2022/01/09 07:55:52;;;;;;;8.13;1.42;;;5.90;99.90;;;;;;5051730;28;20037;-62
2022/01/09 07:58:21;;;;;;;9.25;1.23;;;5.90;99.90;;;;;;5051339;28;20043;-62
2022/01/09 08:00:46;;;;;;;5.40;0.85;;;5.80;99.90;;;;;;5048746;28;20032;-62
2022/01/09 08:03:12;;;;;;;5.20;1.50;;;5.80;99.90;;;;;;5047014;28;20026;-61
2022/01/09 08:05:38;;;;;;;6.40;1.13;;;5.90;99.90;;;;;;5049912;28;20017;-62
2022/01/09 08:08:04;;;;;;;8.32;1.10;;;5.90;99.90;;;;;;5048626;28;20025;-61
2022/01/09 08:10:30;;;;;;;8.48;1.13;;;5.90;99.90;;;;;;5042796;28;20131;-61
2022/01/09 08:12:55;;;;;;;9.90;1.27;;;5.90;99.90;;;;;;5047886;28;20059;-62
2022/01/09 08:15:21;;;;;;;7.03;1.15;;;5.90;99.90;;;;;;5048696;28;20024;-61
2022/01/09 08:17:47;;;;;;;8.80;2.45;;;5.90;99.90;;;;;;5048876;28;20135;-62
2022/01/09 08:20:14;;;;;;;3.95;0.88;;;5.90;99.90;;;;;;5050249;28;20423;-61
2022/01/09 08:22:41;;;;;;;6.35;0.85;;;5.80;99.90;;;;;;5051908;28;20078;-61
2022/01/09 08:25:11;;;;;;;7.82;1.52;;;5.90;99.90;;;;;;5050712;28;20025;-61
2022/01/09 08:27:36;;;;;;;8.47;1.10;;;5.90;99.90;;;;;;5052231;28;20032;-61
2022/01/09 08:30:14;;;;;;;6.50;1.00;;;5.80;99.90;;;;;;5046048;28;20427;-61
2022/01/09 08:32:40;;;;;;;5.03;0.70;;;5.90;99.90;;;;;;5051038;28;20028;-62
2022/01/09 08:35:06;;;;;;;8.82;1.23;;;5.90;99.90;;;;;;5050075;28;20029;-62
2022/01/09 08:37:32;;;;;;;7.50;1.05;;;5.90;99.90;;;;;;5052287;28;20033;-61
2022/01/09 08:39:58;;;;;;;5.25;1.02;;;5.90;99.90;;;;;;5054696;28;20533;-61
2022/01/09 08:42:24;;;;;;;8.18;1.10;;;6.00;99.90;;;;;;5070050;28;20027;-62
2022/01/09 08:44:49;;;;;;;6.38;0.80;;;6.00;99.90;;;;;;5060432;28;20040;-61
2022/01/09 08:47:38;;;;;;;6.30;1.00;;;6.00;99.90;;;;;;5065215;28;20082;-62
2022/01/09 08:50:05;;;;;;;3.95;1.17;;;6.10;99.90;;;;;;5054619;28;20060;-62
2022/01/09 08:52:31;;;;;;;6.25;1.00;;;6.10;99.90;;;;;;5065723;28;20021;-62
2022/01/09 08:55:19;;;;;;;5.65;1.17;;;6.20;99.90;;;;;;5060144;28;20047;-62
2022/01/09 08:58:38;;;;;;;7.13;1.00;;;6.20;99.90;;;;;;5060541;28;20029;-62
2022/01/09 09:01:04;;;;;;;9.05;1.85;;;6.20;99.90;;;;;;5034595;28;20125;-62
2022/01/09 09:03:29;;;;;;;5.85;0.80;;;6.20;99.90;;;;;;5034252;28;20105;-62
2022/01/09 09:06:06;;;;;;;4.40;1.30;;;6.20;99.90;;;;;;5033221;28;20112;-62
2022/01/09 09:08:31;;;;;;;7.05;1.40;;;6.20;99.90;;;;;;5051155;28;20626;-62
2022/01/09 09:10:57;;;;;;;5.95;1.15;;;6.20;99.90;;;;;;5053061;28;20127;-62
2022/01/09 09:13:22;;;;;;;6.68;1.30;;;6.10;99.90;;;;;;5051487;28;20076;-62
2022/01/09 09:15:58;;;;;;;8.63;1.33;;;6.10;99.90;;;;;;5036909;28;20034;-62
2022/01/09 09:18:23;;;;;;;7.90;1.80;;;6.10;99.90;;;;;;5036236;28;20021;-62
2022/01/09 09:20:49;;;;;;;7.13;1.50;;;6.10;99.90;;;;;;5047375;28;21562;-62
2022/01/09 09:23:36;;;;;;;9.05;2.40;;;6.10;99.90;;;;;;5048437;28;20025;-61
2022/01/09 09:26:01;;;;;;;9.82;1.67;;;6.00;99.90;;;;;;5046886;28;20018;-62
2022/01/09 09:28:27;;;;;;;7.70;1.10;;;6.10;99.90;;;;;;5039603;28;20039;-61
2022/01/09 09:30:53;;;;;;;8.85;2.45;;;6.20;99.90;;;;;;5054490;28;20488;-62
2022/01/09 09:33:52;;;;;;;5.88;1.20;;;6.20;99.90;;;;;;5053304;28;20025;-62
2022/01/09 09:36:28;;;;;;;4.45;1.02;;;6.30;99.90;;;;;;5052632;28;20032;-62
2022/01/09 09:38:54;;;;;;;7.68;1.20;;;6.20;99.90;;;;;;5054632;28;20504;-62
2022/01/09 09:41:23;;;;;;;8.88;1.20;;;6.20;99.90;;;;;;5021896;28;20037;-62
2022/01/09 09:43:49;;;;;;;8.07;1.77;;;6.20;99.90;;;;;;5025646;28;20136;-62
2022/01/09 09:46:15;;;;;;;7.32;1.08;;;6.20;99.90;;;;;;5048947;28;20041;-62
2022/01/09 09:48:41;;;;;;;6.15;1.40;;;6.20;99.90;;;;;;5050876;28;20021;-62
2022/01/09 09:51:06;;;;;;;9.15;1.48;;;6.20;99.90;;;;;;5049600;28;20025;-62
2022/01/09 09:53:32;;;;;;;7.68;1.40;;;6.20;99.90;;;;;;5055510;28;20031;-62
2022/01/09 09:55:57;;;;;;;7.00;1.10;;;6.30;99.90;;;;;;5052444;28;20033;-61
2022/01/09 09:58:37;;;;;;;6.20;1.33;;;6.30;99.90;;;;;;5054689;28;20488;-62
2022/01/09 10:01:08;;;;;;;5.78;1.40;;;6.30;99.90;;;;;;5053869;28;20017;-62
2022/01/09 10:03:53;;;;;;;7.13;1.17;;;6.40;99.90;;;;;;5055826;28;20017;-62
2022/01/09 10:09:50;;;;;;;4.00;1.25;;;6.70;99.90;;;;;;5051413;28;20126;-61
2022/01/09 10:12:23;;;;;;;7.03;1.58;;;7.10;99.90;;;;;;5052987;28;20029;-61
2022/01/09 10:14:52;;;;;;;8.80;1.50;;;7.20;99.90;;;;;;5048349;28;20045;-62
2022/01/09 10:17:19;;;;;;;4.68;1.10;;;7.30;99.90;;;;;;5047441;28;20501;-62
2022/01/09 10:20:35;;;;;;;7.38;1.20;;;7.60;99.90;;;;;;5056529;28;20116;-62
2022/01/09 10:23:00;;;;;;;6.20;1.20;;;7.90;99.90;;;;;;5044289;28;20033;-62
2022/01/09 10:25:55;;;;;;;6.55;1.20;;;7.80;99.90;;;;;;5054197;28;20029;-62
2022/01/09 10:28:22;;;;;;;10.10;1.30;;;7.80;99.90;;;;;;5057305;28;20503;-62
2022/01/09 10:30:51;;;;;;;7.40;1.58;;;8.50;99.80;;;;;;5073083;28;20028;-62
2022/01/09 10:33:20;;;;;;;4.85;1.17;;;8.90;99.10;;;;;;5051704;28;20028;-62
2022/01/09 10:35:47;;;;;;;8.13;1.20;;;9.10;98.50;;;;;;5047892;28;20019;-62
2022/01/09 10:38:40;;;;;;;;;;;;;;;;;;;;;
2022/01/09 10:48:19;;;;;;;4.22;0.80;;;10.60;95.00;;;;;;5044058;28;20024;-62
2022/01/09 10:50:45;;;;;;;6.78;1.27;;;10.80;93.80;;;;;;5043681;28;20131;-62
2022/01/09 10:53:22;;;;;;;3.20;0.70;;;10.80;93.00;;;;;;5039427;28;20090;-62
2022/01/09 10:56:01;;;;;;;7.82;1.00;;;10.80;92.70;;;;;;5032722;28;20037;-62
2022/01/09 10:58:27;;;;;;;7.30;1.20;;;10.60;92.60;;;;;;5028900;28;20104;-62
2022/01/09 11:01:32;;;;;;;8.88;1.10;;;10.60;92.60;;;;;;5019811;28;20036;-62
2022/01/09 11:04:10;;;;;;;6.07;0.93;;;10.40;92.40;;;;;;5020325;28;20255;-62
2022/01/09 11:09:36;;;;;;;4.13;0.98;;;9.50;93.00;;;;;;5055771;28;20033;-62
2022/01/09 11:12:03;;;;;;;8.10;1.13;;;9.10;93.70;;;;;;5054462;28;20039;-62
2022/01/09 11:14:34;;;;;;;4.65;0.93;;;8.90;94.30;;;;;;5053815;28;20073;-62
2022/01/09 11:17:03;;;;;;;5.03;0.90;;;8.70;94.70;;;;;;5049633;28;20124;-62
2022/01/09 11:19:29;;;;;;;7.47;1.17;;;8.70;95.20;;;;;;5037097;28;20022;-62
2022/01/09 11:21:59;;;;;;;7.22;1.17;;;8.70;95.40;;;;;;5049122;28;20083;-62
2022/01/09 11:24:40;;;;;;;5.38;0.90;;;8.90;95.70;;;;;;5052228;28;20428;-62
2022/01/09 11:27:06;;;;;;;7.13;1.02;;;9.50;95.70;;;;;;5052214;28;20392;-62
2022/01/09 11:29:44;;;;;;;9.35;1.10;;;9.90;94.80;;;;;;5051765;28;20100;-62
2022/01/09 11:39:12;;;;;;;4.75;1.15;;;11.10;94.10;;;;;;5049295;28;20037;-62
2022/01/09 11:42:07;;;;;;;6.03;0.90;;;11.70;93.00;;;;;;5068127;28;20103;-62
2022/01/09 11:44:33;;;;;;;3.80;0.80;;;12.30;92.40;;;;;;5061786;28;20036;-62
2022/01/09 11:47:04;;;;;;;6.63;1.00;;;12.80;91.30;;;;;;5054641;28;20461;-62
2022/01/09 11:49:38;;;;;;;9.55;1.45;;;13.00;90.90;;;;;;5040811;28;20033;-62
2022/01/09 11:52:05;;;;;;;5.97;1.10;;;13.60;90.00;;;;;;5063387;28;20017;-63
2022/01/09 11:54:50;;;;;;;4.47;1.10;;;14.10;89.30;;;;;;5047266;28;20031;-62
2022/01/09 11:57:33;;;;;;;6.97;1.35;;;15.20;87.90;;;;;;5067605;28;20099;-62
2022/01/09 11:59:58;;;;;;;6.15;1.30;;;15.80;83.00;;;;;;5042042;28;20035;-62
2022/01/09 12:02:27;;;;;;;4.82;1.00;;;16.00;81.60;;;;;;5062752;28;20029;-62
2022/01/09 12:05:00;;;;;;;6.93;1.10;;;16.90;80.00;;;;;;5063422;28;20025;-62
2022/01/09 12:07:53;;;;;;;;;;;;;;;;;;;;;
2022/01/09 12:10:29;;;;;;;8.23;1.52;;;17.30;74.80;;;;;;5064050;28;20028;-62
2022/01/09 12:12:56;;;;;;;7.95;1.42;;;16.70;74.90;;;;;;5067310;28;20112;-62
2022/01/09 12:15:40;;;;;;;8.82;1.67;;;15.80;75.80;;;;;;5059035;28;20036;-62
2022/01/09 12:18:07;;;;;;;10.30;1.95;;;15.00;77.40;;;;;;5043470;28;20032;-62
2022/01/09 12:20:40;;;;;;;6.82;1.55;;;14.30;78.60;;;;;;5055569;28;20041;-62
2022/01/09 12:23:07;;;;;;;10.23;1.30;;;14.70;79.30;;;;;;5069324;28;20423;-62
2022/01/09 12:25:36;;;;;;;8.93;1.90;;;14.80;76.90;;;;;;5058849;28;20021;-63
2022/01/09 12:28:17;;;;;;;7.18;1.92;;;15.10;76.50;;;;;;5056122;28;20028;-62
2022/01/09 12:30:52;;;;;;;7.88;1.27;;;15.60;75.20;;;;;;5053517;28;20500;-62
2022/01/09 12:33:27;;;;;;;5.80;1.40;;;16.70;73.50;;;;;;5055876;28;20535;-63
2022/01/09 12:36:01;;;;;;;7.63;1.98;;;16.90;71.00;;;;;;5043793;28;20074;-63
2022/01/09 12:38:31;;;;;;;5.38;1.30;;;17.00;71.30;;;;;;5066385;28;20017;-63
2022/01/09 12:41:01;;;;;;;6.07;1.55;;;17.30;70.00;;;;;;5052188;28;20028;-62
2022/01/09 12:43:58;;;;;;;;;;;;;;;;;;;;;
2022/01/09 12:46:54;;;;;;;6.78;1.42;;;16.20;70.00;;;;;;5050610;28;20037;-62
2022/01/09 12:49:22;;;;;;;5.82;1.23;;;15.30;71.40;;;;;;5051380;28;20037;-63
2022/01/09 12:51:53;;;;;;;7.25;1.38;;;14.70;72.00;;;;;;5051769;28;20028;-62
2022/01/09 12:54:19;;;;;;;7.72;1.20;;;14.60;72.70;;;;;;5053429;28;20082;-62
2022/01/09 12:56:45;;;;;;;4.68;1.05;;;15.20;72.80;;;;;;5063199;28;20027;-62
2022/01/09 12:59:20;;;;;;;7.22;1.60;;;16.10;71.60;;;;;;5060229;28;20021;-62
2022/01/09 13:01:48;;;;;;;6.38;1.42;;;17.10;67.20;;;;;;5072710;28;20020;-62
2022/01/09 13:04:19;;;;;;;6.88;1.30;;;17.20;65.90;;;;;;5075356;28;20020;-62
2022/01/09 13:06:47;;;;;;;6.03;1.20;;;17.40;65.00;;;;;;5058733;28;20397;-63
2022/01/09 13:09:21;;;;;;;7.77;1.47;;;16.70;64.50;;;;;;5054702;28;20021;-62
2022/01/09 13:12:07;;;;;;;7.20;1.20;;;16.30;64.90;;;;;;5054882;28;20450;-63
2022/01/09 13:14:34;;;;;;;6.22;1.10;;;16.20;66.30;;;;;;5054766;28;20120;-63
2022/01/09 13:17:02;;;;;;;7.47;1.60;;;15.90;66.40;;;;;;5054899;28;20037;-63
2022/01/09 13:19:28;;;;;;;6.28;1.40;;;15.70;66.50;;;;;;5054906;28;20029;-62
2022/01/09 13:21:54;;;;;;;4.95;1.40;;;15.40;66.60;;;;;;5054753;28;20024;-63
2022/01/09 13:24:24;;;;;;;5.68;1.15;;;16.10;67.30;;;;;;5053368;28;20483;-63